sensor_id;sensor_type;location;lat;lon;timestamp;temperature;humidity
2226;DHT22;1119;48.288;8.726;2022-12-18T00:01:21;-5.90;99.90
2226;DHT22;1119;48.288;8.726;2022-12-18T00:03:51;-6.30;99.90
2226;DHT22;1119;48.288;8.726;2022-12-18T00:06:20;-6.40;99.90
2226;DHT22;1119;48.288;8.726;2022-12-18T00:08:48;-6.60;99.90
2226;DHT22;1119;48.288;8.726;2022-12-18T00:11:20;-6.60;99.90
2226;DHT22;1119;48.288;8.726;2022-12-18T00:13:49;-6.70;99.90
2226;DHT22;1119;48.288;8.726;2022-12-18T00:16:18;-6.70;99.90
2226;DHT22;1119;48.288;8.726;2022-12-18T00:18:47;-6.60;99.90
2226;DHT22;1119;48.288;8.726;2022-12-18T00:21:15;-6.60;99.90
2226;DHT22;1119;48.288;8.726;2022-12-18T00:23:44;-6.50;99.90
2226;DHT22;1119;48.288;8.726;2022-12-18T00:26:13;-6.50;99.90
2226;DHT22;1119;48.288;8.726;2022-12-18T00:28:43;-6.50;99.90
2226;DHT22;1119;48.288;8.726;2022-12-18T00:31:13;-6.60;99.90
2226;DHT22;1119;48.288;8.726;2022-12-18T00:33:41;-6.60;99.90
2226;DHT22;1119;48.288;8.726;2022-12-18T00:36:11;-6.50;99.90
2226;DHT22;1119;48.288;8.726;2022-12-18T00:38:39;-6.50;99.90
2226;DHT22;1119;48.288;8.726;2022-12-18T00:41:10;-6.50;99.90
2226;DHT22;1119;48.288;8.726;2022-12-18T00:43:39;-6.50;99.90
2226;DHT22;1119;48.288;8.726;2022-12-18T00:46:07;-6.40;99.90
2226;DHT22;1119;48.288;8.726;2022-12-18T00:48:34;-6.40;99.90
2226;DHT22;1119;48.288;8.726;2022-12-18T00:51:01;-6.40;99.90
2226;DHT22;1119;48.288;8.726;2022-12-18T00:53:29;-6.50;99.90
2226;DHT22;1119;48.288;8.726;2022-12-18T00:55:56;-6.50;99.90
2226;DHT22;1119;48.288;8.726;2022-12-18T00:58:23;-6.60;99.90
2226;DHT22;1119;48.288;8.726;2022-12-18T01:00:50;-6.60;99.90
2226;DHT22;1119;48.288;8.726;2022-12-18T01:03:19;-6.60;99.90
2226;DHT22;1119;48.288;8.726;2022-12-18T01:05:46;-6.60;99.90
2226;DHT22;1119;48.288;8.726;2022-12-18T01:08:14;-6.60;99.90
2226;DHT22;1119;48.288;8.726;2022-12-18T01:10:43;-6.60;99.90
2226;DHT22;1119;48.288;8.726;2022-12-18T01:13:10;-6.60;99.90
2226;DHT22;1119;48.288;8.726;2022-12-18T01:15:37;-6.60;99.90
2226;DHT22;1119;48.288;8.726;2022-12-18T01:18:06;-6.50;99.90
2226;DHT22;1119;48.288;8.726;2022-12-18T01:20:34;-6.50;99.90
2226;DHT22;1119;48.288;8.726;2022-12-18T01:23:05;-6.50;99.90
2226;DHT22;1119;48.288;8.726;2022-12-18T01:25:35;-6.50;99.90
2226;DHT22;1119;48.288;8.726;2022-12-18T01:28:03;-6.50;99.90
2226;DHT22;1119;48.288;8.726;2022-12-18T01:30:31;-6.50;99.90
2226;DHT22;1119;48.288;8.726;2022-12-18T01:32:59;-6.50;99.90
2226;DHT22;1119;48.288;8.726;2022-12-18T01:35:26;-6.60;99.90
2226;DHT22;1119;48.288;8.726;2022-12-18T01:37:55;-6.60;99.90
2226;DHT22;1119;48.288;8.726;2022-12-18T01:40:23;-6.60;99.90
2226;DHT22;1119;48.288;8.726;2022-12-18T01:42:51;-6.70;99.90
2226;DHT22;1119;48.288;8.726;2022-12-18T01:45:25;-6.70;99.90
2226;DHT22;1119;48.288;8.726;2022-12-18T01:47:56;-6.80;99.90
2226;DHT22;1119;48.288;8.726;2022-12-18T01:50:28;-6.70;99.90
2226;DHT22;1119;48.288;8.726;2022-12-18T01:53:03;-6.70;99.90
2226;DHT22;1119;48.288;8.726;2022-12-18T01:55:38;-6.70;99.90
2226;DHT22;1119;48.288;8.726;2022-12-18T01:58:07;-6.60;99.90
2226;DHT22;1119;48.288;8.726;2022-12-18T02:00:34;-6.60;99.90
2226;DHT22;1119;48.288;8.726;2022-12-18T02:03:02;-6.60;99.90
2226;DHT22;1119;48.288;8.726;2022-12-18T02:05:36;-6.50;99.90
2226;DHT22;1119;48.288;8.726;2022-12-18T02:08:13;-6.50;99.90
2226;DHT22;1119;48.288;8.726;2022-12-18T02:10:48;-6.40;99.90
2226;DHT22;1119;48.288;8.726;2022-12-18T02:13:30;-6.40;99.90
2226;DHT22;1119;48.288;8.726;2022-12-18T02:16:07;-6.40;99.90
2226;DHT22;1119;48.288;8.726;2022-12-18T02:18:42;-6.40;99.90
2226;DHT22;1119;48.288;8.726;2022-12-18T02:21:16;-6.30;99.90
2226;DHT22;1119;48.288;8.726;2022-12-18T02:23:57;-6.30;99.90
2226;DHT22;1119;48.288;8.726;2022-12-18T02:26:40;-6.10;99.90
2226;DHT22;1119;48.288;8.726;2022-12-18T02:29:13;-6.30;99.90
2226;DHT22;1119;48.288;8.726;2022-12-18T02:31:47;-6.30;99.90
2226;DHT22;1119;48.288;8.726;2022-12-18T02:34:17;-6.30;99.90
2226;DHT22;1119;48.288;8.726;2022-12-18T02:36:46;-6.30;99.90
2226;DHT22;1119;48.288;8.726;2022-12-18T02:39:16;-6.30;99.90
2226;DHT22;1119;48.288;8.726;2022-12-18T02:41:58;-6.30;99.90
2226;DHT22;1119;48.288;8.726;2022-12-18T02:44:28;-6.30;99.90
2226;DHT22;1119;48.288;8.726;2022-12-18T02:46:55;-6.20;99.90
2226;DHT22;1119;48.288;8.726;2022-12-18T02:49:32;-6.20;99.90
2226;DHT22;1119;48.288;8.726;2022-12-18T02:52:11;-6.20;99.90
2226;DHT22;1119;48.288;8.726;2022-12-18T02:54:56;-6.20;99.90
2226;DHT22;1119;48.288;8.726;2022-12-18T02:57:34;-6.20;99.90
2226;DHT22;1119;48.288;8.726;2022-12-18T03:00:07;-6.30;99.90
2226;DHT22;1119;48.288;8.726;2022-12-18T03:02:40;-6.30;99.90
2226;DHT22;1119;48.288;8.726;2022-12-18T03:05:15;-6.30;99.90
2226;DHT22;1119;48.288;8.726;2022-12-18T03:07:50;-6.30;99.90
2226;DHT22;1119;48.288;8.726;2022-12-18T03:10:23;-6.30;99.90
2226;DHT22;1119;48.288;8.726;2022-12-18T03:12:58;-6.30;99.90
2226;DHT22;1119;48.288;8.726;2022-12-18T03:15:33;-6.30;99.90
2226;DHT22;1119;48.288;8.726;2022-12-18T03:18:12;-6.20;99.90
2226;DHT22;1119;48.288;8.726;2022-12-18T03:20:43;-6.20;99.90
2226;DHT22;1119;48.288;8.726;2022-12-18T03:23:17;-6.20;99.90
2226;DHT22;1119;48.288;8.726;2022-12-18T03:25:51;-6.20;99.90
2226;DHT22;1119;48.288;8.726;2022-12-18T03:28:23;-6.20;99.90
2226;DHT22;1119;48.288;8.726;2022-12-18T03:30:59;-6.20;99.90
2226;DHT22;1119;48.288;8.726;2022-12-18T03:33:31;-6.20;99.90
2226;DHT22;1119;48.288;8.726;2022-12-18T03:36:02;-6.20;99.90
2226;DHT22;1119;48.288;8.726;2022-12-18T03:38:30;-6.20;99.90
2226;DHT22;1119;48.288;8.726;2022-12-18T03:41:03;-6.20;99.90
2226;DHT22;1119;48.288;8.726;2022-12-18T03:43:47;-6.20;99.90
2226;DHT22;1119;48.288;8.726;2022-12-18T03:46:24;-6.20;99.90
2226;DHT22;1119;48.288;8.726;2022-12-18T03:49:00;-6.20;99.90
2226;DHT22;1119;48.288;8.726;2022-12-18T03:51:37;-6.20;99.90
2226;DHT22;1119;48.288;8.726;2022-12-18T03:54:09;-6.20;99.90
2226;DHT22;1119;48.288;8.726;2022-12-18T03:56:45;-6.40;99.90
2226;DHT22;1119;48.288;8.726;2022-12-18T03:59:17;-6.40;99.90
2226;DHT22;1119;48.288;8.726;2022-12-18T04:01:47;-6.40;99.90
2226;DHT22;1119;48.288;8.726;2022-12-18T04:04:18;-6.40;99.90
2226;DHT22;1119;48.288;8.726;2022-12-18T04:06:47;-6.30;99.90
2226;DHT22;1119;48.288;8.726;2022-12-18T04:09:18;-5.60;99.90
2226;DHT22;1119;48.288;8.726;2022-12-18T04:11:47;-6.30;99.90
2226;DHT22;1119;48.288;8.726;2022-12-18T04:14:17;-6.30;99.90
2226;DHT22;1119;48.288;8.726;2022-12-18T04:16:48;-6.20;99.90
2226;DHT22;1119;48.288;8.726;2022-12-18T04:19:18;-6.10;99.90
2226;DHT22;1119;48.288;8.726;2022-12-18T04:21:49;-6.10;99.90
2226;DHT22;1119;48.288;8.726;2022-12-18T04:24:17;-6.00;99.90
2226;DHT22;1119;48.288;8.726;2022-12-18T04:26:54;-6.00;99.90
2226;DHT22;1119;48.288;8.726;2022-12-18T04:29:26;-6.00;99.90
2226;DHT22;1119;48.288;8.726;2022-12-18T04:31:54;-6.10;99.90
2226;DHT22;1119;48.288;8.726;2022-12-18T04:34:22;-6.00;99.90
2226;DHT22;1119;48.288;8.726;2022-12-18T04:36:52;-6.20;99.90
2226;DHT22;1119;48.288;8.726;2022-12-18T04:39:22;-6.20;99.90
2226;DHT22;1119;48.288;8.726;2022-12-18T04:41:53;-6.20;99.90
2226;DHT22;1119;48.288;8.726;2022-12-18T04:44:20;-6.30;99.90
2226;DHT22;1119;48.288;8.726;2022-12-18T04:46:49;-6.30;99.90
2226;DHT22;1119;48.288;8.726;2022-12-18T04:49:16;-6.40;99.90
2226;DHT22;1119;48.288;8.726;2022-12-18T04:51:44;-6.40;99.90
2226;DHT22;1119;48.288;8.726;2022-12-18T04:54:11;-6.40;99.90
2226;DHT22;1119;48.288;8.726;2022-12-18T04:56:39;-6.40;99.90
2226;DHT22;1119;48.288;8.726;2022-12-18T04:59:07;-6.40;99.90
2226;DHT22;1119;48.288;8.726;2022-12-18T05:01:34;-6.40;99.90
2226;DHT22;1119;48.288;8.726;2022-12-18T05:04:04;-6.40;99.90
2226;DHT22;1119;48.288;8.726;2022-12-18T05:06:31;-6.30;99.90
2226;DHT22;1119;48.288;8.726;2022-12-18T05:08:59;-6.40;99.90
2226;DHT22;1119;48.288;8.726;2022-12-18T05:11:26;-6.40;99.90
2226;DHT22;1119;48.288;8.726;2022-12-18T05:13:54;-6.40;99.90
2226;DHT22;1119;48.288;8.726;2022-12-18T05:16:21;-6.30;99.90
2226;DHT22;1119;48.288;8.726;2022-12-18T05:18:49;-6.20;99.90
2226;DHT22;1119;48.288;8.726;2022-12-18T05:21:17;-6.30;99.90
2226;DHT22;1119;48.288;8.726;2022-12-18T05:23:45;-6.30;99.90
2226;DHT22;1119;48.288;8.726;2022-12-18T05:26:16;-6.30;99.90
2226;DHT22;1119;48.288;8.726;2022-12-18T05:28:44;-6.30;99.90
2226;DHT22;1119;48.288;8.726;2022-12-18T05:31:13;-6.30;99.90
2226;DHT22;1119;48.288;8.726;2022-12-18T05:33:41;-6.30;99.90
2226;DHT22;1119;48.288;8.726;2022-12-18T05:36:09;-6.30;99.90
2226;DHT22;1119;48.288;8.726;2022-12-18T05:38:39;-6.30;99.90
2226;DHT22;1119;48.288;8.726;2022-12-18T05:41:07;-6.30;99.90
2226;DHT22;1119;48.288;8.726;2022-12-18T05:43:37;-6.30;99.90
2226;DHT22;1119;48.288;8.726;2022-12-18T05:46:06;-6.30;99.90
2226;DHT22;1119;48.288;8.726;2022-12-18T05:48:34;-6.40;99.90
2226;DHT22;1119;48.288;8.726;2022-12-18T05:51:07;-6.30;99.90
2226;DHT22;1119;48.288;8.726;2022-12-18T05:53:37;-6.30;99.90
2226;DHT22;1119;48.288;8.726;2022-12-18T05:56:08;-6.30;99.90
2226;DHT22;1119;48.288;8.726;2022-12-18T05:58:37;-6.30;99.90
2226;DHT22;1119;48.288;8.726;2022-12-18T06:01:09;-6.30;99.90
2226;DHT22;1119;48.288;8.726;2022-12-18T06:03:38;-6.30;99.90
2226;DHT22;1119;48.288;8.726;2022-12-18T06:06:13;-6.40;99.90
2226;DHT22;1119;48.288;8.726;2022-12-18T06:08:42;-6.40;99.90
2226;DHT22;1119;48.288;8.726;2022-12-18T06:11:10;-6.40;99.90
2226;DHT22;1119;48.288;8.726;2022-12-18T06:13:38;-6.40;99.90
2226;DHT22;1119;48.288;8.726;2022-12-18T06:16:06;-6.40;99.90
2226;DHT22;1119;48.288;8.726;2022-12-18T06:18:37;-6.30;99.90
2226;DHT22;1119;48.288;8.726;2022-12-18T06:21:05;-6.40;99.90
2226;DHT22;1119;48.288;8.726;2022-12-18T06:23:32;-6.40;99.90
2226;DHT22;1119;48.288;8.726;2022-12-18T06:26:05;-6.40;99.90
2226;DHT22;1119;48.288;8.726;2022-12-18T06:28:33;-6.40;99.90
2226;DHT22;1119;48.288;8.726;2022-12-18T06:31:02;-6.30;99.90
2226;DHT22;1119;48.288;8.726;2022-12-18T06:33:30;-6.40;99.90
2226;DHT22;1119;48.288;8.726;2022-12-18T06:36:00;-6.40;99.90
2226;DHT22;1119;48.288;8.726;2022-12-18T06:38:28;-6.30;99.90
2226;DHT22;1119;48.288;8.726;2022-12-18T06:40:55;-6.30;99.90
2226;DHT22;1119;48.288;8.726;2022-12-18T06:43:24;-6.30;99.90
2226;DHT22;1119;48.288;8.726;2022-12-18T06:45:58;-6.30;99.90
2226;DHT22;1119;48.288;8.726;2022-12-18T06:48:26;-6.20;99.90
2226;DHT22;1119;48.288;8.726;2022-12-18T06:50:54;-6.20;99.90
2226;DHT22;1119;48.288;8.726;2022-12-18T06:53:21;-6.30;99.90
2226;DHT22;1119;48.288;8.726;2022-12-18T06:55:49;-6.30;99.90
2226;DHT22;1119;48.288;8.726;2022-12-18T06:58:16;-6.30;99.90
2226;DHT22;1119;48.288;8.726;2022-12-18T07:00:45;-6.20;99.90
2226;DHT22;1119;48.288;8.726;2022-12-18T07:03:13;-6.20;99.90
2226;DHT22;1119;48.288;8.726;2022-12-18T07:05:40;-6.40;99.90
2226;DHT22;1119;48.288;8.726;2022-12-18T07:08:08;-6.20;99.90
2226;DHT22;1119;48.288;8.726;2022-12-18T07:10:41;-6.20;99.90
2226;DHT22;1119;48.288;8.726;2022-12-18T07:13:09;-6.20;99.90
2226;DHT22;1119;48.288;8.726;2022-12-18T07:15:36;-6.20;99.90
2226;DHT22;1119;48.288;8.726;2022-12-18T07:18:05;-6.10;99.90
2226;DHT22;1119;48.288;8.726;2022-12-18T07:20:33;-6.10;99.90
2226;DHT22;1119;48.288;8.726;2022-12-18T07:23:02;-6.10;99.90
2226;DHT22;1119;48.288;8.726;2022-12-18T07:25:29;-6.00;99.90
2226;DHT22;1119;48.288;8.726;2022-12-18T07:27:57;-6.00;99.90
2226;DHT22;1119;48.288;8.726;2022-12-18T07:30:24;-6.00;99.90
2226;DHT22;1119;48.288;8.726;2022-12-18T07:32:51;-6.00;99.90
2226;DHT22;1119;48.288;8.726;2022-12-18T07:35:20;-6.00;99.90
2226;DHT22;1119;48.288;8.726;2022-12-18T07:37:48;-6.00;99.90
2226;DHT22;1119;48.288;8.726;2022-12-18T07:40:16;-5.90;99.90
2226;DHT22;1119;48.288;8.726;2022-12-18T07:42:43;-5.80;99.90
2226;DHT22;1119;48.288;8.726;2022-12-18T07:45:11;-5.80;99.90
2226;DHT22;1119;48.288;8.726;2022-12-18T07:47:39;-5.80;99.90
2226;DHT22;1119;48.288;8.726;2022-12-18T07:50:07;-5.70;99.90
2226;DHT22;1119;48.288;8.726;2022-12-18T07:52:36;-5.60;99.90
2226;DHT22;1119;48.288;8.726;2022-12-18T07:55:05;-5.60;99.90
2226;DHT22;1119;48.288;8.726;2022-12-18T07:57:32;-5.60;99.90
2226;DHT22;1119;48.288;8.726;2022-12-18T08:00:00;-5.50;99.90
2226;DHT22;1119;48.288;8.726;2022-12-18T08:02:38;-5.60;99.90
2226;DHT22;1119;48.288;8.726;2022-12-18T10:34:55;-1.30;99.90
2226;DHT22;1119;48.288;8.726;2022-12-18T10:37:26;-0.10;99.90
2226;DHT22;1119;48.288;8.726;2022-12-18T10:40:10;-0.30;99.90
2226;DHT22;1119;48.288;8.726;2022-12-18T10:42:39;-1.20;99.90
2226;DHT22;1119;48.288;8.726;2022-12-18T10:45:13;-1.10;99.90
2226;DHT22;1119;48.288;8.726;2022-12-18T10:47:47;-0.90;99.90
2226;DHT22;1119;48.288;8.726;2022-12-18T10:50:20;-0.80;99.90
2226;DHT22;1119;48.288;8.726;2022-12-18T10:52:55;-0.50;99.90
2226;DHT22;1119;48.288;8.726;2022-12-18T10:55:25;-0.70;99.90
2226;DHT22;1119;48.288;8.726;2022-12-18T10:57:56;-0.60;99.90
2226;DHT22;1119;48.288;8.726;2022-12-18T11:00:41;-0.60;99.90
2226;DHT22;1119;48.288;8.726;2022-12-18T11:03:30;-0.50;99.90
2226;DHT22;1119;48.288;8.726;2022-12-18T11:06:03;-0.60;99.90
2226;DHT22;1119;48.288;8.726;2022-12-18T11:08:33;-0.50;99.90
2226;DHT22;1119;48.288;8.726;2022-12-18T11:11:00;-0.50;99.90
2226;DHT22;1119;48.288;8.726;2022-12-18T11:13:30;-0.90;99.90
2226;DHT22;1119;48.288;8.726;2022-12-18T11:15:58;0.40;99.90
2226;DHT22;1119;48.288;8.726;2022-12-18T11:18:29;-0.70;99.90
2226;DHT22;1119;48.288;8.726;2022-12-18T11:20:59;0.30;99.90
2226;DHT22;1119;48.288;8.726;2022-12-18T11:23:33;-0.20;99.90
2226;DHT22;1119;48.288;8.726;2022-12-18T11:26:03;-0.40;99.90
2226;DHT22;1119;48.288;8.726;2022-12-18T11:28:37;-0.70;99.90
2226;DHT22;1119;48.288;8.726;2022-12-18T11:31:18;-0.10;99.90
2226;DHT22;1119;48.288;8.726;2022-12-18T11:33:54;-0.50;99.90
2226;DHT22;1119;48.288;8.726;2022-12-18T11:36:26;-0.40;99.90
2226;DHT22;1119;48.288;8.726;2022-12-18T11:39:00;-0.40;99.90
2226;DHT22;1119;48.288;8.726;2022-12-18T11:41:38;-0.30;99.90
2226;DHT22;1119;48.288;8.726;2022-12-18T11:44:33;-0.20;99.90
2226;DHT22;1119;48.288;8.726;2022-12-18T11:47:12;0.10;99.90
2226;DHT22;1119;48.288;8.726;2022-12-18T11:49:47;0.10;99.90
2226;DHT22;1119;48.288;8.726;2022-12-18T11:52:19;0.60;99.90
2226;DHT22;1119;48.288;8.726;2022-12-18T11:54:51;0.90;99.90
2226;DHT22;1119;48.288;8.726;2022-12-18T11:57:28;1.40;99.90
2226;DHT22;1119;48.288;8.726;2022-12-18T12:00:04;1.60;99.90
2226;DHT22;1119;48.288;8.726;2022-12-18T12:05:56;1.60;99.90
2226;DHT22;1119;48.288;8.726;2022-12-18T12:08:38;0.70;99.90
2226;DHT22;1119;48.288;8.726;2022-12-18T12:11:19;1.20;99.90
2226;DHT22;1119;48.288;8.726;2022-12-18T12:14:02;1.70;99.90
2226;DHT22;1119;48.288;8.726;2022-12-18T12:16:42;0.70;99.90
2226;DHT22;1119;48.288;8.726;2022-12-18T12:19:24;1.00;99.90
2226;DHT22;1119;48.288;8.726;2022-12-18T12:22:06;1.20;99.90
2226;DHT22;1119;48.288;8.726;2022-12-18T12:24:47;1.30;99.90
2226;DHT22;1119;48.288;8.726;2022-12-18T12:27:27;1.20;99.90
2226;DHT22;1119;48.288;8.726;2022-12-18T12:30:04;0.90;99.90
2226;DHT22;1119;48.288;8.726;2022-12-18T12:32:57;0.60;99.90
2226;DHT22;1119;48.288;8.726;2022-12-18T12:35:46;0.30;99.90
2226;DHT22;1119;48.288;8.726;2022-12-18T12:38:21;0.00;99.90
2226;DHT22;1119;48.288;8.726;2022-12-18T12:40:54;0.50;99.90
2226;DHT22;1119;48.288;8.726;2022-12-18T12:43:32;0.10;99.90
2226;DHT22;1119;48.288;8.726;2022-12-18T12:46:05;0.50;99.90
2226;DHT22;1119;48.288;8.726;2022-12-18T12:48:42;0.20;99.90
2226;DHT22;1119;48.288;8.726;2022-12-18T12:51:15;0.20;99.90
2226;DHT22;1119;48.288;8.726;2022-12-18T12:53:46;0.30;99.90
2226;DHT22;1119;48.288;8.726;2022-12-18T12:56:16;1.10;99.90
2226;DHT22;1119;48.288;8.726;2022-12-18T12:58:52;0.30;99.90
2226;DHT22;1119;48.288;8.726;2022-12-18T13:01:31;1.10;99.90
2226;DHT22;1119;48.288;8.726;2022-12-18T13:04:10;0.00;99.90
2226;DHT22;1119;48.288;8.726;2022-12-18T13:06:46;0.40;99.90
2226;DHT22;1119;48.288;8.726;2022-12-18T13:09:19;-0.50;99.90
2226;DHT22;1119;48.288;8.726;2022-12-18T13:11:47;0.90;99.90
2226;DHT22;1119;48.288;8.726;2022-12-18T13:14:37;-0.20;99.90
2226;DHT22;1119;48.288;8.726;2022-12-18T13:17:28;-0.70;99.90
2226;DHT22;1119;48.288;8.726;2022-12-18T13:20:09;-0.60;99.90
2226;DHT22;1119;48.288;8.726;2022-12-18T13:22:42;-0.80;99.90
2226;DHT22;1119;48.288;8.726;2022-12-18T13:25:32;-0.50;99.90
2226;DHT22;1119;48.288;8.726;2022-12-18T13:28:05;-0.50;99.90
2226;DHT22;1119;48.288;8.726;2022-12-18T13:46:44;-1.00;99.90
2226;DHT22;1119;48.288;8.726;2022-12-18T13:49:23;-1.00;99.90
2226;DHT22;1119;48.288;8.726;2022-12-18T13:52:01;-0.40;99.90
2226;DHT22;1119;48.288;8.726;2022-12-18T13:54:33;-0.90;99.90
2226;DHT22;1119;48.288;8.726;2022-12-18T13:57:03;-0.80;99.90
2226;DHT22;1119;48.288;8.726;2022-12-18T13:59:35;-0.90;99.90
2226;DHT22;1119;48.288;8.726;2022-12-18T14:02:13;-1.00;99.90
2226;DHT22;1119;48.288;8.726;2022-12-18T14:10:12;-1.10;99.90
2226;DHT22;1119;48.288;8.726;2022-12-18T14:12:45;-1.10;99.90
2226;DHT22;1119;48.288;8.726;2022-12-18T14:15:31;-1.20;99.90
2226;DHT22;1119;48.288;8.726;2022-12-18T14:18:08;-1.20;99.90
2226;DHT22;1119;48.288;8.726;2022-12-18T14:20:44;-1.20;99.90
2226;DHT22;1119;48.288;8.726;2022-12-18T14:23:27;-1.20;99.90
2226;DHT22;1119;48.288;8.726;2022-12-18T14:25:55;-1.20;99.90
2226;DHT22;1119;48.288;8.726;2022-12-18T14:28:23;-1.00;99.90
2226;DHT22;1119;48.288;8.726;2022-12-18T14:30:52;-1.30;99.90
2226;DHT22;1119;48.288;8.726;2022-12-18T14:33:23;-1.20;99.90
2226;DHT22;1119;48.288;8.726;2022-12-18T14:35:56;-1.30;99.90
2226;DHT22;1119;48.288;8.726;2022-12-18T14:40:57;-1.30;99.90
2226;DHT22;1119;48.288;8.726;2022-12-18T14:45:55;-2.70;99.90
2226;DHT22;1119;48.288;8.726;2022-12-18T14:48:34;-1.40;99.90
2226;DHT22;1119;48.288;8.726;2022-12-18T14:51:05;-1.50;99.90
2226;DHT22;1119;48.288;8.726;2022-12-18T14:53:36;-1.50;99.90
2226;DHT22;1119;48.288;8.726;2022-12-18T14:56:17;-1.50;99.90
2226;DHT22;1119;48.288;8.726;2022-12-18T14:58:49;-1.30;99.90
2226;DHT22;1119;48.288;8.726;2022-12-18T15:01:27;-1.90;99.90
2226;DHT22;1119;48.288;8.726;2022-12-18T15:04:29;-1.90;99.90
2226;DHT22;1119;48.288;8.726;2022-12-18T18:45:28;-2.80;99.90
2226;DHT22;1119;48.288;8.726;2022-12-18T18:47:55;-2.80;99.90
2226;DHT22;1119;48.288;8.726;2022-12-18T18:50:24;-2.70;99.90
2226;DHT22;1119;48.288;8.726;2022-12-18T18:52:53;-2.70;99.90
2226;DHT22;1119;48.288;8.726;2022-12-18T18:55:20;-2.70;99.90
2226;DHT22;1119;48.288;8.726;2022-12-18T18:57:48;-2.70;99.90
2226;DHT22;1119;48.288;8.726;2022-12-18T19:00:16;-2.70;99.90
2226;DHT22;1119;48.288;8.726;2022-12-18T19:02:45;-2.70;99.90
2226;DHT22;1119;48.288;8.726;2022-12-18T19:05:13;-2.70;99.90
2226;DHT22;1119;48.288;8.726;2022-12-18T19:07:42;-2.70;99.90
2226;DHT22;1119;48.288;8.726;2022-12-18T19:10:10;-2.60;99.90
2226;DHT22;1119;48.288;8.726;2022-12-18T19:12:37;-2.60;99.90
2226;DHT22;1119;48.288;8.726;2022-12-18T19:15:22;-2.60;99.90
2226;DHT22;1119;48.288;8.726;2022-12-18T19:17:52;-2.60;99.90
2226;DHT22;1119;48.288;8.726;2022-12-18T19:20:19;-2.50;99.90
2226;DHT22;1119;48.288;8.726;2022-12-18T19:22:47;-2.50;99.90
2226;DHT22;1119;48.288;8.726;2022-12-18T19:25:15;-2.50;99.90
2226;DHT22;1119;48.288;8.726;2022-12-18T19:27:43;-2.50;99.90
2226;DHT22;1119;48.288;8.726;2022-12-18T19:30:11;-2.60;99.90
2226;DHT22;1119;48.288;8.726;2022-12-18T19:32:39;-2.50;99.90
2226;DHT22;1119;48.288;8.726;2022-12-18T19:35:09;-2.60;99.90
2226;DHT22;1119;48.288;8.726;2022-12-18T19:37:36;-2.50;99.90
2226;DHT22;1119;48.288;8.726;2022-12-18T19:40:05;-2.60;99.90
2226;DHT22;1119;48.288;8.726;2022-12-18T19:42:34;-2.50;99.90
2226;DHT22;1119;48.288;8.726;2022-12-18T19:45:02;-2.50;99.90
2226;DHT22;1119;48.288;8.726;2022-12-18T19:47:30;-2.60;99.90
2226;DHT22;1119;48.288;8.726;2022-12-18T19:49:57;-2.50;99.90
2226;DHT22;1119;48.288;8.726;2022-12-18T19:52:26;-2.50;99.90
2226;DHT22;1119;48.288;8.726;2022-12-18T19:54:54;-2.50;99.90
2226;DHT22;1119;48.288;8.726;2022-12-18T19:57:21;-2.50;99.90
2226;DHT22;1119;48.288;8.726;2022-12-18T19:59:48;-2.50;99.90
2226;DHT22;1119;48.288;8.726;2022-12-18T20:02:15;-2.50;99.90
2226;DHT22;1119;48.288;8.726;2022-12-18T20:04:43;-2.50;99.90
2226;DHT22;1119;48.288;8.726;2022-12-18T20:07:10;-2.50;99.90
2226;DHT22;1119;48.288;8.726;2022-12-18T20:09:39;-2.40;99.90
2226;DHT22;1119;48.288;8.726;2022-12-18T20:12:07;-2.40;99.90
2226;DHT22;1119;48.288;8.726;2022-12-18T20:14:34;-2.40;99.90
2226;DHT22;1119;48.288;8.726;2022-12-18T20:17:01;-2.40;99.90
2226;DHT22;1119;48.288;8.726;2022-12-18T20:19:29;-2.40;99.90
2226;DHT22;1119;48.288;8.726;2022-12-18T20:21:57;-2.40;99.90
2226;DHT22;1119;48.288;8.726;2022-12-18T20:24:24;-2.40;99.90
2226;DHT22;1119;48.288;8.726;2022-12-18T20:26:53;-2.40;99.90
2226;DHT22;1119;48.288;8.726;2022-12-18T20:29:21;-2.40;99.90
2226;DHT22;1119;48.288;8.726;2022-12-18T20:31:48;-2.30;99.90
2226;DHT22;1119;48.288;8.726;2022-12-18T20:34:15;-2.30;99.90
2226;DHT22;1119;48.288;8.726;2022-12-18T20:36:43;-2.30;99.90
2226;DHT22;1119;48.288;8.726;2022-12-18T20:39:10;-2.20;99.90
2226;DHT22;1119;48.288;8.726;2022-12-18T20:41:38;-2.30;99.90
2226;DHT22;1119;48.288;8.726;2022-12-18T20:44:11;-2.30;99.90
2226;DHT22;1119;48.288;8.726;2022-12-18T20:46:39;-2.30;99.90
2226;DHT22;1119;48.288;8.726;2022-12-18T20:49:07;-2.30;99.90
2226;DHT22;1119;48.288;8.726;2022-12-18T20:51:34;-2.20;99.90
2226;DHT22;1119;48.288;8.726;2022-12-18T20:54:02;-2.20;99.90
2226;DHT22;1119;48.288;8.726;2022-12-18T20:56:29;-2.20;99.90
2226;DHT22;1119;48.288;8.726;2022-12-18T20:58:59;-2.20;99.90
2226;DHT22;1119;48.288;8.726;2022-12-18T21:01:29;-2.10;99.90
2226;DHT22;1119;48.288;8.726;2022-12-18T21:03:56;-2.10;99.90
2226;DHT22;1119;48.288;8.726;2022-12-18T21:06:24;-2.00;99.90
2226;DHT22;1119;48.288;8.726;2022-12-18T21:08:51;-2.00;99.90
2226;DHT22;1119;48.288;8.726;2022-12-18T21:11:26;-2.00;99.90
2226;DHT22;1119;48.288;8.726;2022-12-18T21:14:13;-1.90;99.90
2226;DHT22;1119;48.288;8.726;2022-12-18T21:16:44;-1.90;99.90
2226;DHT22;1119;48.288;8.726;2022-12-18T21:19:12;-1.80;99.90
2226;DHT22;1119;48.288;8.726;2022-12-18T21:21:40;-1.80;99.90
2226;DHT22;1119;48.288;8.726;2022-12-18T21:24:08;-1.80;99.90
2226;DHT22;1119;48.288;8.726;2022-12-18T21:26:37;-1.90;99.90
2226;DHT22;1119;48.288;8.726;2022-12-18T21:29:09;-1.80;99.90
2226;DHT22;1119;48.288;8.726;2022-12-18T21:31:39;-1.80;99.90
2226;DHT22;1119;48.288;8.726;2022-12-18T21:34:10;-1.80;99.90
2226;DHT22;1119;48.288;8.726;2022-12-18T21:36:40;-1.70;99.90
2226;DHT22;1119;48.288;8.726;2022-12-18T21:39:08;-1.80;99.90
2226;DHT22;1119;48.288;8.726;2022-12-18T21:41:36;-1.70;99.90
2226;DHT22;1119;48.288;8.726;2022-12-18T21:44:20;-1.60;99.90
2226;DHT22;1119;48.288;8.726;2022-12-18T21:46:49;-1.50;99.90
2226;DHT22;1119;48.288;8.726;2022-12-18T21:49:18;-1.60;99.90
2226;DHT22;1119;48.288;8.726;2022-12-18T21:51:47;-1.50;99.90
2226;DHT22;1119;48.288;8.726;2022-12-18T21:54:16;-1.50;99.90
2226;DHT22;1119;48.288;8.726;2022-12-18T21:56:46;-1.40;99.90
2226;DHT22;1119;48.288;8.726;2022-12-18T21:59:16;-1.50;99.90
2226;DHT22;1119;48.288;8.726;2022-12-18T22:01:44;-1.40;99.90
2226;DHT22;1119;48.288;8.726;2022-12-18T22:04:13;-1.40;99.90
2226;DHT22;1119;48.288;8.726;2022-12-18T22:06:42;-1.30;99.90
2226;DHT22;1119;48.288;8.726;2022-12-18T22:09:12;-1.30;99.90
2226;DHT22;1119;48.288;8.726;2022-12-18T22:11:41;-1.20;99.90
2226;DHT22;1119;48.288;8.726;2022-12-18T22:14:09;-1.20;99.90
2226;DHT22;1119;48.288;8.726;2022-12-18T22:16:36;-1.10;99.90
2226;DHT22;1119;48.288;8.726;2022-12-18T22:19:03;-1.10;99.90
2226;DHT22;1119;48.288;8.726;2022-12-18T22:21:32;-1.00;99.90
2226;DHT22;1119;48.288;8.726;2022-12-18T22:24:03;-1.00;99.90
2226;DHT22;1119;48.288;8.726;2022-12-18T22:26:33;-1.00;99.90
2226;DHT22;1119;48.288;8.726;2022-12-18T22:29:02;-0.90;99.90
2226;DHT22;1119;48.288;8.726;2022-12-18T22:31:48;-0.80;99.90
2226;DHT22;1119;48.288;8.726;2022-12-18T22:34:15;-0.80;99.90
2226;DHT22;1119;48.288;8.726;2022-12-18T22:36:45;-0.80;99.90
2226;DHT22;1119;48.288;8.726;2022-12-18T22:39:16;-0.70;99.90
2226;DHT22;1119;48.288;8.726;2022-12-18T22:41:45;-0.70;99.90
2226;DHT22;1119;48.288;8.726;2022-12-18T22:44:12;-0.60;99.90
2226;DHT22;1119;48.288;8.726;2022-12-18T22:46:42;-0.50;99.90
2226;DHT22;1119;48.288;8.726;2022-12-18T22:49:12;-0.40;99.90
2226;DHT22;1119;48.288;8.726;2022-12-18T22:51:40;-0.30;99.90
2226;DHT22;1119;48.288;8.726;2022-12-18T22:54:08;-0.10;99.90
2226;DHT22;1119;48.288;8.726;2022-12-18T22:56:37;-0.10;99.90
2226;DHT22;1119;48.288;8.726;2022-12-18T22:59:05;0.00;99.90
2226;DHT22;1119;48.288;8.726;2022-12-18T23:01:34;0.00;99.90
2226;DHT22;1119;48.288;8.726;2022-12-18T23:04:01;-0.30;99.90
2226;DHT22;1119;48.288;8.726;2022-12-18T23:06:29;-0.40;99.90